createdAt,value
2023-06-18T00:00:03.030Z,82.6
2023-06-18T00:15:02.519Z,83.0
2023-06-18T00:30:02.904Z,83.6
2023-06-18T00:45:02.326Z,85.0
2023-06-18T01:00:02.892Z,85.6
2023-06-18T01:15:02.229Z,85.8
2023-06-18T01:30:02.882Z,85.9
2023-06-18T01:45:02.130Z,86.5
2023-06-18T02:00:02.546Z,86.7
2023-06-18T02:15:03.005Z,87.5
2023-06-18T02:30:02.420Z,88.2
2023-06-18T02:45:02.908Z,89.0
2023-06-18T03:00:02.286Z,90.8
2023-06-18T03:15:02.927Z,90.9
2023-06-18T03:30:02.194Z,90.7
2023-06-18T03:45:02.629Z,90.5
2023-06-18T04:00:03.069Z,90.4
2023-06-18T04:15:02.476Z,90.5
2023-06-18T04:30:02.932Z,90.5
2023-06-18T04:45:02.341Z,89.9
2023-06-18T05:00:02.944Z,88.9
2023-06-18T05:15:02.232Z,87.8
2023-06-18T05:30:02.690Z,87.5
2023-06-18T05:45:03.106Z,87.5
2023-06-18T06:00:02.571Z,84.9
2023-06-18T06:15:02.982Z,75.6
2023-06-18T06:30:02.420Z,64.6
2023-06-18T06:45:02.941Z,61.6
2023-06-18T07:00:02.279Z,56.5
2023-06-18T07:15:02.894Z,53.9
2023-06-18T07:30:02.150Z,49.8
2023-06-18T07:45:02.593Z,47.2
2023-06-18T08:00:03.037Z,45.8
2023-06-18T08:15:02.437Z,44.4
2023-06-18T08:30:02.970Z,41.2
2023-06-18T08:45:02.317Z,40.6
2023-06-18T09:00:02.986Z,35.2
2023-06-18T09:15:02.208Z,33.7
2023-06-18T09:30:02.667Z,33.3
2023-06-18T09:45:03.101Z,32.2
2023-06-18T10:00:02.493Z,31.2
2023-06-18T10:15:02.995Z,31.2
2023-06-18T10:30:02.378Z,34.0
2023-06-18T10:45:03.002Z,32.2
2023-06-18T11:00:02.272Z,35.8
2023-06-18T11:15:02.722Z,33.8
2023-06-18T11:30:03.144Z,34.2
2023-06-18T11:45:02.558Z,36.2
2023-06-18T12:00:03.005Z,35.4
2023-06-18T12:15:02.418Z,33.4
2023-06-18T12:30:03.021Z,34.7
2023-06-18T12:45:02.332Z,31.5
2023-06-18T13:00:03.013Z,36.7
2023-06-18T13:15:02.222Z,32.9
2023-06-18T13:30:02.643Z,31.4
2023-06-18T13:45:03.156Z,32.2
2023-06-18T14:00:02.537Z,31.1
2023-06-18T14:15:03.088Z,29.1
2023-06-18T14:30:02.441Z,29.0
2023-06-18T14:45:03.108Z,33.2
2023-06-18T15:00:02.292Z,33.6
2023-06-18T15:15:02.797Z,34.4
2023-06-18T15:30:02.193Z,34.9
2023-06-18T15:45:02.605Z,36.9
2023-06-18T16:00:03.068Z,36.3
2023-06-18T16:15:02.487Z,37.2
2023-06-18T16:30:03.062Z,37.9
2023-06-18T16:45:02.355Z,38.4
2023-06-18T17:00:03.005Z,40.9
2023-06-18T17:15:02.248Z,41.6
2023-06-18T17:30:02.685Z,43.5
2023-06-18T17:45:03.145Z,44.6
2023-06-18T18:00:02.591Z,44.7
2023-06-18T18:15:03.073Z,45.7
2023-06-18T18:30:02.497Z,45.8
2023-06-18T18:45:03.094Z,45.7
2023-06-18T19:00:02.353Z,46.7
2023-06-18T19:15:02.972Z,47.5
2023-06-18T19:30:02.224Z,49.8
2023-06-18T19:45:02.660Z,52.8
2023-06-18T20:00:03.163Z,52.2
2023-06-18T20:15:02.563Z,53.4
2023-06-18T20:30:03.079Z,51.4
2023-06-18T20:45:02.439Z,52.2
2023-06-18T21:00:03.097Z,52.5
2023-06-18T21:15:02.336Z,52.2
2023-06-18T21:30:02.751Z,51.9
2023-06-18T21:45:03.231Z,51.8
2023-06-18T22:00:02.649Z,52.7
2023-06-18T22:15:02.158Z,53.9
2023-06-18T22:30:02.529Z,53.7
2023-06-18T22:45:03.110Z,53.8
2023-06-18T23:00:02.395Z,57.8
2023-06-18T23:15:02.863Z,59.4
2023-06-18T23:30:02.280Z,59.3
2023-06-18T23:45:02.684Z,59.9
